sensor_id;sensor_type;location;lat;lon;timestamp;temperature;humidity
30572;DHT22;17348;50.948;10.696;2023-08-21T00:00:31;21.50;99.90
30572;DHT22;17348;50.948;10.696;2023-08-21T00:03:33;21.50;99.90
30572;DHT22;17348;50.948;10.696;2023-08-21T00:06:36;21.40;99.90
30572;DHT22;17348;50.948;10.696;2023-08-21T00:09:39;21.40;99.90
30572;DHT22;17348;50.948;10.696;2023-08-21T00:12:42;21.30;99.90
30572;DHT22;17348;50.948;10.696;2023-08-21T00:15:44;21.30;99.90
30572;DHT22;17348;50.948;10.696;2023-08-21T00:18:46;21.30;99.90
30572;DHT22;17348;50.948;10.696;2023-08-21T00:21:49;21.30;99.90
30572;DHT22;17348;50.948;10.696;2023-08-21T00:24:52;21.20;99.90
30572;DHT22;17348;50.948;10.696;2023-08-21T00:27:55;21.20;99.90
30572;DHT22;17348;50.948;10.696;2023-08-21T00:31:00;21.10;99.90
30572;DHT22;17348;50.948;10.696;2023-08-21T00:34:03;21.20;99.90
30572;DHT22;17348;50.948;10.696;2023-08-21T00:37:05;21.10;99.90
30572;DHT22;17348;50.948;10.696;2023-08-21T00:40:10;21.10;99.90
30572;DHT22;17348;50.948;10.696;2023-08-21T00:43:12;21.10;99.90
30572;DHT22;17348;50.948;10.696;2023-08-21T00:46:15;21.00;99.90
30572;DHT22;17348;50.948;10.696;2023-08-21T00:49:18;21.10;99.90
30572;DHT22;17348;50.948;10.696;2023-08-21T00:52:20;21.00;99.90
30572;DHT22;17348;50.948;10.696;2023-08-21T00:55:24;21.00;99.90
30572;DHT22;17348;50.948;10.696;2023-08-21T00:58:26;20.90;99.90
30572;DHT22;17348;50.948;10.696;2023-08-21T01:01:29;21.00;99.90
30572;DHT22;17348;50.948;10.696;2023-08-21T01:04:32;20.90;99.90
30572;DHT22;17348;50.948;10.696;2023-08-21T01:07:38;20.90;99.90
30572;DHT22;17348;50.948;10.696;2023-08-21T01:10:52;20.90;99.90
30572;DHT22;17348;50.948;10.696;2023-08-21T01:14:00;20.80;99.90
30572;DHT22;17348;50.948;10.696;2023-08-21T01:17:05;20.80;99.90
30572;DHT22;17348;50.948;10.696;2023-08-21T01:20:09;20.70;99.90
30572;DHT22;17348;50.948;10.696;2023-08-21T01:23:32;20.70;99.90
30572;DHT22;17348;50.948;10.696;2023-08-21T01:26:35;20.70;99.90
30572;DHT22;17348;50.948;10.696;2023-08-21T01:29:37;20.60;99.90
30572;DHT22;17348;50.948;10.696;2023-08-21T01:32:47;20.60;99.90
30572;DHT22;17348;50.948;10.696;2023-08-21T01:35:50;20.60;99.90
30572;DHT22;17348;50.948;10.696;2023-08-21T01:38:55;20.50;99.90
30572;DHT22;17348;50.948;10.696;2023-08-21T01:41:58;20.50;99.90
30572;DHT22;17348;50.948;10.696;2023-08-21T01:45:00;20.50;99.90
30572;DHT22;17348;50.948;10.696;2023-08-21T01:48:03;20.50;99.90
30572;DHT22;17348;50.948;10.696;2023-08-21T01:51:05;20.50;99.90
30572;DHT22;17348;50.948;10.696;2023-08-21T01:54:09;20.50;99.90
30572;DHT22;17348;50.948;10.696;2023-08-21T01:57:11;20.50;99.90
30572;DHT22;17348;50.948;10.696;2023-08-21T02:00:14;20.50;99.90
30572;DHT22;17348;50.948;10.696;2023-08-21T02:03:16;20.50;99.90
30572;DHT22;17348;50.948;10.696;2023-08-21T02:06:18;20.50;99.90
30572;DHT22;17348;50.948;10.696;2023-08-21T02:09:22;20.40;99.90
30572;DHT22;17348;50.948;10.696;2023-08-21T02:12:25;20.40;99.90
30572;DHT22;17348;50.948;10.696;2023-08-21T02:15:27;20.40;99.90
30572;DHT22;17348;50.948;10.696;2023-08-21T02:18:29;20.40;99.90
30572;DHT22;17348;50.948;10.696;2023-08-21T02:21:33;20.40;99.90
30572;DHT22;17348;50.948;10.696;2023-08-21T02:24:38;20.40;99.90
30572;DHT22;17348;50.948;10.696;2023-08-21T02:27:41;20.30;99.90
30572;DHT22;17348;50.948;10.696;2023-08-21T02:30:43;20.30;99.90
30572;DHT22;17348;50.948;10.696;2023-08-21T02:33:45;20.20;99.90
30572;DHT22;17348;50.948;10.696;2023-08-21T02:36:48;20.20;99.90
30572;DHT22;17348;50.948;10.696;2023-08-21T02:39:51;20.20;99.90
30572;DHT22;17348;50.948;10.696;2023-08-21T02:42:54;20.20;99.90
30572;DHT22;17348;50.948;10.696;2023-08-21T02:45:56;20.20;99.90
30572;DHT22;17348;50.948;10.696;2023-08-21T02:48:58;20.20;99.90
30572;DHT22;17348;50.948;10.696;2023-08-21T02:52:00;20.20;99.90
30572;DHT22;17348;50.948;10.696;2023-08-21T02:55:05;20.10;99.90
30572;DHT22;17348;50.948;10.696;2023-08-21T02:58:07;20.10;99.90
30572;DHT22;17348;50.948;10.696;2023-08-21T03:01:10;20.10;99.90
30572;DHT22;17348;50.948;10.696;2023-08-21T03:04:12;20.10;99.90
30572;DHT22;17348;50.948;10.696;2023-08-21T03:07:15;20.00;99.90
30572;DHT22;17348;50.948;10.696;2023-08-21T03:10:19;20.00;99.90
30572;DHT22;17348;50.948;10.696;2023-08-21T03:13:21;20.00;99.90
30572;DHT22;17348;50.948;10.696;2023-08-21T03:16:24;20.00;99.90
30572;DHT22;17348;50.948;10.696;2023-08-21T03:19:26;19.90;99.90
30572;DHT22;17348;50.948;10.696;2023-08-21T03:22:28;19.90;99.90
30572;DHT22;17348;50.948;10.696;2023-08-21T03:25:34;19.90;99.90
30572;DHT22;17348;50.948;10.696;2023-08-21T03:28:36;19.90;99.90
30572;DHT22;17348;50.948;10.696;2023-08-21T03:31:38;19.80;99.90
30572;DHT22;17348;50.948;10.696;2023-08-21T03:34:41;19.80;99.90
30572;DHT22;17348;50.948;10.696;2023-08-21T03:37:43;19.90;99.90
30572;DHT22;17348;50.948;10.696;2023-08-21T03:40:46;19.90;99.90
30572;DHT22;17348;50.948;10.696;2023-08-21T03:43:49;19.90;99.90
30572;DHT22;17348;50.948;10.696;2023-08-21T03:46:51;19.80;99.90
30572;DHT22;17348;50.948;10.696;2023-08-21T03:49:53;19.80;99.90
30572;DHT22;17348;50.948;10.696;2023-08-21T03:52:56;19.80;99.90
30572;DHT22;17348;50.948;10.696;2023-08-21T03:55:59;19.80;99.90
30572;DHT22;17348;50.948;10.696;2023-08-21T03:59:02;19.80;99.90
30572;DHT22;17348;50.948;10.696;2023-08-21T04:02:04;19.80;99.90
30572;DHT22;17348;50.948;10.696;2023-08-21T04:05:07;19.70;99.90
30572;DHT22;17348;50.948;10.696;2023-08-21T04:08:09;19.70;99.90
30572;DHT22;17348;50.948;10.696;2023-08-21T04:11:13;19.70;99.90
30572;DHT22;17348;50.948;10.696;2023-08-21T04:14:15;19.70;99.90
30572;DHT22;17348;50.948;10.696;2023-08-21T04:17:20;19.70;99.90
30572;DHT22;17348;50.948;10.696;2023-08-21T04:20:23;19.70;99.90
30572;DHT22;17348;50.948;10.696;2023-08-21T04:23:25;19.70;99.90
30572;DHT22;17348;50.948;10.696;2023-08-21T04:26:29;19.60;99.90
30572;DHT22;17348;50.948;10.696;2023-08-21T04:29:32;19.60;99.90
30572;DHT22;17348;50.948;10.696;2023-08-21T04:32:34;19.60;99.90
30572;DHT22;17348;50.948;10.696;2023-08-21T04:35:37;19.50;99.90
30572;DHT22;17348;50.948;10.696;2023-08-21T04:38:40;19.50;99.90
30572;DHT22;17348;50.948;10.696;2023-08-21T04:41:43;19.50;99.90
30572;DHT22;17348;50.948;10.696;2023-08-21T04:44:46;19.50;99.90
30572;DHT22;17348;50.948;10.696;2023-08-21T04:47:48;19.50;99.90
30572;DHT22;17348;50.948;10.696;2023-08-21T04:50:50;19.50;99.90
30572;DHT22;17348;50.948;10.696;2023-08-21T04:53:53;19.60;99.90
30572;DHT22;17348;50.948;10.696;2023-08-21T04:56:56;19.60;99.90
30572;DHT22;17348;50.948;10.696;2023-08-21T04:59:59;19.60;99.90
30572;DHT22;17348;50.948;10.696;2023-08-21T05:03:02;19.70;99.90
30572;DHT22;17348;50.948;10.696;2023-08-21T05:06:04;19.80;99.90
30572;DHT22;17348;50.948;10.696;2023-08-21T05:09:06;19.80;99.90
30572;DHT22;17348;50.948;10.696;2023-08-21T05:12:10;19.80;99.90
30572;DHT22;17348;50.948;10.696;2023-08-21T05:15:12;19.80;99.90
30572;DHT22;17348;50.948;10.696;2023-08-21T05:18:15;19.90;99.90
30572;DHT22;17348;50.948;10.696;2023-08-21T05:21:18;19.90;99.90
30572;DHT22;17348;50.948;10.696;2023-08-21T05:24:21;19.90;99.90
30572;DHT22;17348;50.948;10.696;2023-08-21T05:27:24;20.00;99.90
30572;DHT22;17348;50.948;10.696;2023-08-21T05:30:27;20.10;99.90
30572;DHT22;17348;50.948;10.696;2023-08-21T05:33:29;20.10;99.90
30572;DHT22;17348;50.948;10.696;2023-08-21T05:36:31;20.20;99.90
30572;DHT22;17348;50.948;10.696;2023-08-21T05:39:33;20.30;99.90
30572;DHT22;17348;50.948;10.696;2023-08-21T05:42:37;20.40;99.90
30572;DHT22;17348;50.948;10.696;2023-08-21T05:45:39;20.50;99.90
30572;DHT22;17348;50.948;10.696;2023-08-21T05:48:42;20.60;99.90
30572;DHT22;17348;50.948;10.696;2023-08-21T05:51:44;20.70;99.90
30572;DHT22;17348;50.948;10.696;2023-08-21T05:54:47;20.80;99.90
30572;DHT22;17348;50.948;10.696;2023-08-21T05:57:50;20.80;99.90
30572;DHT22;17348;50.948;10.696;2023-08-21T06:00:53;21.00;99.90
30572;DHT22;17348;50.948;10.696;2023-08-21T06:03:55;21.00;99.90
30572;DHT22;17348;50.948;10.696;2023-08-21T06:06:57;21.20;99.90
30572;DHT22;17348;50.948;10.696;2023-08-21T06:09:59;21.20;99.90
30572;DHT22;17348;50.948;10.696;2023-08-21T06:13:03;21.20;99.90
30572;DHT22;17348;50.948;10.696;2023-08-21T06:16:06;21.30;99.90
30572;DHT22;17348;50.948;10.696;2023-08-21T06:19:08;21.40;99.90
30572;DHT22;17348;50.948;10.696;2023-08-21T06:22:10;21.40;99.90
30572;DHT22;17348;50.948;10.696;2023-08-21T06:25:13;21.60;99.90
30572;DHT22;17348;50.948;10.696;2023-08-21T06:28:16;21.70;99.90
30572;DHT22;17348;50.948;10.696;2023-08-21T06:31:18;21.80;99.90
30572;DHT22;17348;50.948;10.696;2023-08-21T06:34:21;21.90;99.90
30572;DHT22;17348;50.948;10.696;2023-08-21T06:37:23;22.00;99.90
30572;DHT22;17348;50.948;10.696;2023-08-21T06:40:26;22.10;99.90
30572;DHT22;17348;50.948;10.696;2023-08-21T06:43:30;22.20;99.90
30572;DHT22;17348;50.948;10.696;2023-08-21T06:46:32;22.40;99.90
30572;DHT22;17348;50.948;10.696;2023-08-21T06:49:35;22.40;99.90
30572;DHT22;17348;50.948;10.696;2023-08-21T06:52:37;22.60;99.90
30572;DHT22;17348;50.948;10.696;2023-08-21T06:55:39;22.70;99.90
30572;DHT22;17348;50.948;10.696;2023-08-21T06:58:49;22.90;99.90
30572;DHT22;17348;50.948;10.696;2023-08-21T07:02:04;22.90;99.90
30572;DHT22;17348;50.948;10.696;2023-08-21T07:05:07;23.00;99.90
30572;DHT22;17348;50.948;10.696;2023-08-21T07:08:10;23.10;99.90
30572;DHT22;17348;50.948;10.696;2023-08-21T07:11:12;23.20;99.90
30572;DHT22;17348;50.948;10.696;2023-08-21T07:14:17;23.40;99.90
30572;DHT22;17348;50.948;10.696;2023-08-21T07:17:24;23.50;99.90
30572;DHT22;17348;50.948;10.696;2023-08-21T07:20:37;23.60;99.90
30572;DHT22;17348;50.948;10.696;2023-08-21T07:23:43;23.70;99.90
30572;DHT22;17348;50.948;10.696;2023-08-21T07:26:48;23.80;99.90
30572;DHT22;17348;50.948;10.696;2023-08-21T07:29:52;24.00;99.90
30572;DHT22;17348;50.948;10.696;2023-08-21T07:32:54;24.00;99.90
30572;DHT22;17348;50.948;10.696;2023-08-21T07:35:57;24.10;99.90
30572;DHT22;17348;50.948;10.696;2023-08-21T07:39:00;24.00;99.90
30572;DHT22;17348;50.948;10.696;2023-08-21T07:42:03;24.10;99.90
30572;DHT22;17348;50.948;10.696;2023-08-21T07:45:08;24.10;99.90
30572;DHT22;17348;50.948;10.696;2023-08-21T07:48:11;24.10;99.90
30572;DHT22;17348;50.948;10.696;2023-08-21T07:51:13;24.10;99.90
30572;DHT22;17348;50.948;10.696;2023-08-21T07:54:16;24.10;99.90
30572;DHT22;17348;50.948;10.696;2023-08-21T07:57:18;24.20;99.90
30572;DHT22;17348;50.948;10.696;2023-08-21T08:00:22;24.20;99.90
30572;DHT22;17348;50.948;10.696;2023-08-21T08:03:25;24.30;99.90
30572;DHT22;17348;50.948;10.696;2023-08-21T08:06:27;24.40;99.90
30572;DHT22;17348;50.948;10.696;2023-08-21T08:09:29;24.40;99.90
30572;DHT22;17348;50.948;10.696;2023-08-21T08:12:32;24.50;99.90
30572;DHT22;17348;50.948;10.696;2023-08-21T08:15:36;24.50;99.90
30572;DHT22;17348;50.948;10.696;2023-08-21T08:18:38;24.70;99.90
30572;DHT22;17348;50.948;10.696;2023-08-21T08:21:40;24.80;99.90
30572;DHT22;17348;50.948;10.696;2023-08-21T08:24:43;24.90;99.90
30572;DHT22;17348;50.948;10.696;2023-08-21T08:27:45;25.00;99.90
30572;DHT22;17348;50.948;10.696;2023-08-21T08:30:49;24.90;99.90
30572;DHT22;17348;50.948;10.696;2023-08-21T08:33:51;24.90;99.90
30572;DHT22;17348;50.948;10.696;2023-08-21T08:36:54;25.00;99.90
30572;DHT22;17348;50.948;10.696;2023-08-21T08:39:56;25.10;99.90
30572;DHT22;17348;50.948;10.696;2023-08-21T08:42:59;25.10;99.90
30572;DHT22;17348;50.948;10.696;2023-08-21T08:46:03;25.10;99.90
30572;DHT22;17348;50.948;10.696;2023-08-21T08:49:07;25.10;99.90
30572;DHT22;17348;50.948;10.696;2023-08-21T08:52:10;25.20;99.90
30572;DHT22;17348;50.948;10.696;2023-08-21T08:55:13;25.20;99.90
30572;DHT22;17348;50.948;10.696;2023-08-21T08:58:15;25.30;99.90
30572;DHT22;17348;50.948;10.696;2023-08-21T09:01:19;25.30;99.90
30572;DHT22;17348;50.948;10.696;2023-08-21T09:04:21;25.40;99.90
30572;DHT22;17348;50.948;10.696;2023-08-21T09:07:24;25.50;99.90
30572;DHT22;17348;50.948;10.696;2023-08-21T09:10:27;25.50;99.90
30572;DHT22;17348;50.948;10.696;2023-08-21T09:13:31;25.60;99.90
30572;DHT22;17348;50.948;10.696;2023-08-21T09:16:35;25.60;99.90
30572;DHT22;17348;50.948;10.696;2023-08-21T09:19:37;25.60;99.90
30572;DHT22;17348;50.948;10.696;2023-08-21T09:22:40;25.60;99.90
30572;DHT22;17348;50.948;10.696;2023-08-21T09:25:44;25.70;99.90
30572;DHT22;17348;50.948;10.696;2023-08-21T09:28:48;25.80;99.90
30572;DHT22;17348;50.948;10.696;2023-08-21T09:31:56;25.80;99.90
30572;DHT22;17348;50.948;10.696;2023-08-21T09:34:58;25.90;99.90
30572;DHT22;17348;50.948;10.696;2023-08-21T09:38:01;26.00;99.90
30572;DHT22;17348;50.948;10.696;2023-08-21T09:41:03;26.10;99.90
30572;DHT22;17348;50.948;10.696;2023-08-21T09:44:05;26.10;99.90
30572;DHT22;17348;50.948;10.696;2023-08-21T09:47:10;26.30;99.90
30572;DHT22;17348;50.948;10.696;2023-08-21T09:50:13;26.50;99.90
30572;DHT22;17348;50.948;10.696;2023-08-21T09:53:15;26.80;99.90
30572;DHT22;17348;50.948;10.696;2023-08-21T09:56:18;26.90;99.90
30572;DHT22;17348;50.948;10.696;2023-08-21T09:59:21;27.00;99.90
30572;DHT22;17348;50.948;10.696;2023-08-21T10:02:28;27.10;99.90
30572;DHT22;17348;50.948;10.696;2023-08-21T10:05:32;27.30;99.90
30572;DHT22;17348;50.948;10.696;2023-08-21T10:08:38;27.50;99.90
30572;DHT22;17348;50.948;10.696;2023-08-21T10:11:42;27.70;99.90
30572;DHT22;17348;50.948;10.696;2023-08-21T10:14:45;27.80;99.90
30572;DHT22;17348;50.948;10.696;2023-08-21T10:17:49;28.00;99.90
30572;DHT22;17348;50.948;10.696;2023-08-21T10:20:52;28.00;99.90
30572;DHT22;17348;50.948;10.696;2023-08-21T10:23:55;28.10;99.90
30572;DHT22;17348;50.948;10.696;2023-08-21T10:26:58;28.20;99.90
30572;DHT22;17348;50.948;10.696;2023-08-21T10:30:12;28.40;99.90
30572;DHT22;17348;50.948;10.696;2023-08-21T10:33:16;28.60;99.90
30572;DHT22;17348;50.948;10.696;2023-08-21T10:39:56;28.90;99.90
30572;DHT22;17348;50.948;10.696;2023-08-21T10:42:59;29.00;99.90
30572;DHT22;17348;50.948;10.696;2023-08-21T10:46:10;29.10;99.90
30572;DHT22;17348;50.948;10.696;2023-08-21T10:49:13;29.20;99.90
30572;DHT22;17348;50.948;10.696;2023-08-21T10:52:21;29.20;99.90
30572;DHT22;17348;50.948;10.696;2023-08-21T10:55:24;29.20;99.90
30572;DHT22;17348;50.948;10.696;2023-08-21T10:58:26;29.20;99.90
30572;DHT22;17348;50.948;10.696;2023-08-21T11:01:43;29.30;99.90
30572;DHT22;17348;50.948;10.696;2023-08-21T11:04:45;29.30;99.90
30572;DHT22;17348;50.948;10.696;2023-08-21T11:07:48;29.30;99.90
30572;DHT22;17348;50.948;10.696;2023-08-21T11:10:51;29.40;99.90
30572;DHT22;17348;50.948;10.696;2023-08-21T11:13:55;29.50;99.90
30572;DHT22;17348;50.948;10.696;2023-08-21T11:16:59;29.80;99.90
30572;DHT22;17348;50.948;10.696;2023-08-21T11:20:02;30.00;99.90
30572;DHT22;17348;50.948;10.696;2023-08-21T11:23:06;30.20;99.90
30572;DHT22;17348;50.948;10.696;2023-08-21T11:26:11;30.20;99.90
30572;DHT22;17348;50.948;10.696;2023-08-21T11:29:13;30.00;99.90
30572;DHT22;17348;50.948;10.696;2023-08-21T11:32:18;29.70;99.90
30572;DHT22;17348;50.948;10.696;2023-08-21T11:35:21;29.50;99.90
30572;DHT22;17348;50.948;10.696;2023-08-21T11:38:25;29.40;99.90
30572;DHT22;17348;50.948;10.696;2023-08-21T11:41:27;29.40;99.90
30572;DHT22;17348;50.948;10.696;2023-08-21T11:44:30;29.50;99.90
30572;DHT22;17348;50.948;10.696;2023-08-21T11:47:34;29.70;99.90
30572;DHT22;17348;50.948;10.696;2023-08-21T11:50:37;29.80;99.90
30572;DHT22;17348;50.948;10.696;2023-08-21T11:53:41;29.80;99.90
30572;DHT22;17348;50.948;10.696;2023-08-21T11:56:43;30.00;99.90
30572;DHT22;17348;50.948;10.696;2023-08-21T11:59:49;30.20;99.90
30572;DHT22;17348;50.948;10.696;2023-08-21T12:02:57;30.30;99.90
30572;DHT22;17348;50.948;10.696;2023-08-21T12:06:05;30.50;99.90
30572;DHT22;17348;50.948;10.696;2023-08-21T12:09:07;30.70;99.90
30572;DHT22;17348;50.948;10.696;2023-08-21T12:12:09;30.80;99.90
30572;DHT22;17348;50.948;10.696;2023-08-21T12:15:12;30.80;99.90
30572;DHT22;17348;50.948;10.696;2023-08-21T12:18:15;30.70;99.90
30572;DHT22;17348;50.948;10.696;2023-08-21T12:21:18;30.60;99.90
30572;DHT22;17348;50.948;10.696;2023-08-21T12:24:20;30.60;99.90
30572;DHT22;17348;50.948;10.696;2023-08-21T12:27:22;30.60;99.90
30572;DHT22;17348;50.948;10.696;2023-08-21T12:30:25;30.60;99.90
30572;DHT22;17348;50.948;10.696;2023-08-21T12:33:29;30.60;99.90
30572;DHT22;17348;50.948;10.696;2023-08-21T12:36:33;30.70;99.90
30572;DHT22;17348;50.948;10.696;2023-08-21T12:39:35;30.80;99.90
30572;DHT22;17348;50.948;10.696;2023-08-21T12:42:37;30.70;99.90
30572;DHT22;17348;50.948;10.696;2023-08-21T12:45:40;30.70;99.90
30572;DHT22;17348;50.948;10.696;2023-08-21T12:48:44;30.60;99.90
30572;DHT22;17348;50.948;10.696;2023-08-21T12:51:46;30.60;99.90
30572;DHT22;17348;50.948;10.696;2023-08-21T12:54:48;30.30;99.90
30572;DHT22;17348;50.948;10.696;2023-08-21T12:57:51;30.10;99.90
30572;DHT22;17348;50.948;10.696;2023-08-21T13:00:53;30.00;99.90
30572;DHT22;17348;50.948;10.696;2023-08-21T13:04:00;30.00;99.90
30572;DHT22;17348;50.948;10.696;2023-08-21T13:07:02;29.90;99.90
30572;DHT22;17348;50.948;10.696;2023-08-21T13:10:06;29.80;99.90
30572;DHT22;17348;50.948;10.696;2023-08-21T13:13:08;29.80;99.90
30572;DHT22;17348;50.948;10.696;2023-08-21T13:16:11;29.90;99.90
30572;DHT22;17348;50.948;10.696;2023-08-21T13:19:15;30.10;99.90
30572;DHT22;17348;50.948;10.696;2023-08-21T13:22:17;30.30;99.90
30572;DHT22;17348;50.948;10.696;2023-08-21T13:25:22;30.40;99.90
30572;DHT22;17348;50.948;10.696;2023-08-21T13:28:25;30.50;99.90
30572;DHT22;17348;50.948;10.696;2023-08-21T13:31:27;30.30;99.90
30572;DHT22;17348;50.948;10.696;2023-08-21T13:34:32;30.30;99.90
30572;DHT22;17348;50.948;10.696;2023-08-21T13:37:34;30.50;99.90
30572;DHT22;17348;50.948;10.696;2023-08-21T13:40:37;30.70;99.90
30572;DHT22;17348;50.948;10.696;2023-08-21T13:43:39;30.70;99.90
30572;DHT22;17348;50.948;10.696;2023-08-21T13:46:41;30.50;99.90
30572;DHT22;17348;50.948;10.696;2023-08-21T13:49:45;30.40;99.90
30572;DHT22;17348;50.948;10.696;2023-08-21T13:52:47;30.30;99.90
30572;DHT22;17348;50.948;10.696;2023-08-21T13:55:50;30.40;99.90
30572;DHT22;17348;50.948;10.696;2023-08-21T13:58:52;30.50;99.90
30572;DHT22;17348;50.948;10.696;2023-08-21T14:01:54;30.50;99.90
30572;DHT22;17348;50.948;10.696;2023-08-21T14:04:58;30.60;99.90
30572;DHT22;17348;50.948;10.696;2023-08-21T14:08:00;30.80;99.90
30572;DHT22;17348;50.948;10.696;2023-08-21T14:11:03;31.00;99.90
30572;DHT22;17348;50.948;10.696;2023-08-21T14:14:05;31.10;99.90
30572;DHT22;17348;50.948;10.696;2023-08-21T14:17:07;31.10;99.90
30572;DHT22;17348;50.948;10.696;2023-08-21T14:20:11;31.20;99.90
30572;DHT22;17348;50.948;10.696;2023-08-21T14:23:14;31.20;99.90
30572;DHT22;17348;50.948;10.696;2023-08-21T14:26:16;31.20;99.90
30572;DHT22;17348;50.948;10.696;2023-08-21T14:29:18;31.20;99.90
30572;DHT22;17348;50.948;10.696;2023-08-21T14:32:20;31.20;99.90
30572;DHT22;17348;50.948;10.696;2023-08-21T14:35:24;31.30;99.90
30572;DHT22;17348;50.948;10.696;2023-08-21T14:38:26;31.30;99.90
30572;DHT22;17348;50.948;10.696;2023-08-21T14:41:29;31.30;99.90
30572;DHT22;17348;50.948;10.696;2023-08-21T14:44:31;31.30;99.90
30572;DHT22;17348;50.948;10.696;2023-08-21T14:47:33;31.00;99.90
30572;DHT22;17348;50.948;10.696;2023-08-21T14:50:38;30.90;99.90
30572;DHT22;17348;50.948;10.696;2023-08-21T14:53:40;30.80;99.90
30572;DHT22;17348;50.948;10.696;2023-08-21T14:56:42;30.90;99.90
30572;DHT22;17348;50.948;10.696;2023-08-21T14:59:45;31.00;99.90
30572;DHT22;17348;50.948;10.696;2023-08-21T15:02:47;30.80;99.90
30572;DHT22;17348;50.948;10.696;2023-08-21T15:05:51;30.60;99.90
30572;DHT22;17348;50.948;10.696;2023-08-21T15:08:53;30.30;99.90
30572;DHT22;17348;50.948;10.696;2023-08-21T15:11:56;30.10;99.90
30572;DHT22;17348;50.948;10.696;2023-08-21T15:14:58;30.00;99.90
30572;DHT22;17348;50.948;10.696;2023-08-21T15:18:00;29.80;99.90
30572;DHT22;17348;50.948;10.696;2023-08-21T15:21:04;29.80;99.90
30572;DHT22;17348;50.948;10.696;2023-08-21T15:24:06;29.70;99.90
30572;DHT22;17348;50.948;10.696;2023-08-21T15:27:09;29.60;99.90
30572;DHT22;17348;50.948;10.696;2023-08-21T15:30:11;29.60;99.90
30572;DHT22;17348;50.948;10.696;2023-08-21T15:33:18;29.60;99.90
30572;DHT22;17348;50.948;10.696;2023-08-21T15:36:21;29.70;99.90
30572;DHT22;17348;50.948;10.696;2023-08-21T15:39:24;29.60;99.90
30572;DHT22;17348;50.948;10.696;2023-08-21T15:42:26;29.80;99.90
30572;DHT22;17348;50.948;10.696;2023-08-21T15:45:28;29.90;99.90
30572;DHT22;17348;50.948;10.696;2023-08-21T15:48:31;30.00;99.90
30572;DHT22;17348;50.948;10.696;2023-08-21T15:51:35;29.90;99.90
30572;DHT22;17348;50.948;10.696;2023-08-21T15:54:37;30.00;99.90
30572;DHT22;17348;50.948;10.696;2023-08-21T15:57:39;30.00;99.90
30572;DHT22;17348;50.948;10.696;2023-08-21T16:00:42;30.10;99.90
30572;DHT22;17348;50.948;10.696;2023-08-21T16:03:44;30.10;99.90
30572;DHT22;17348;50.948;10.696;2023-08-21T16:06:48;30.10;99.90
30572;DHT22;17348;50.948;10.696;2023-08-21T16:09:51;30.10;99.90
30572;DHT22;17348;50.948;10.696;2023-08-21T16:12:53;30.20;99.90
30572;DHT22;17348;50.948;10.696;2023-08-21T16:15:55;30.00;99.90
30572;DHT22;17348;50.948;10.696;2023-08-21T16:18:58;29.80;99.90
30572;DHT22;17348;50.948;10.696;2023-08-21T16:22:03;29.60;99.90
30572;DHT22;17348;50.948;10.696;2023-08-21T16:25:07;29.50;99.90
30572;DHT22;17348;50.948;10.696;2023-08-21T16:28:09;29.50;99.90
30572;DHT22;17348;50.948;10.696;2023-08-21T16:31:15;29.40;99.90
30572;DHT22;17348;50.948;10.696;2023-08-21T16:34:18;29.30;99.90
30572;DHT22;17348;50.948;10.696;2023-08-21T16:37:22;29.10;99.90
30572;DHT22;17348;50.948;10.696;2023-08-21T16:40:24;29.00;99.90
30572;DHT22;17348;50.948;10.696;2023-08-21T16:43:26;28.80;99.90
30572;DHT22;17348;50.948;10.696;2023-08-21T16:46:32;28.60;99.90
30572;DHT22;17348;50.948;10.696;2023-08-21T16:49:34;28.50;99.90
30572;DHT22;17348;50.948;10.696;2023-08-21T16:52:38;28.30;99.90
30572;DHT22;17348;50.948;10.696;2023-08-21T16:55:40;28.20;99.90
30572;DHT22;17348;50.948;10.696;2023-08-21T16:58:43;28.10;99.90
30572;DHT22;17348;50.948;10.696;2023-08-21T17:01:45;28.10;99.90
30572;DHT22;17348;50.948;10.696;2023-08-21T17:04:48;28.00;99.90
30572;DHT22;17348;50.948;10.696;2023-08-21T17:07:51;28.00;99.90
30572;DHT22;17348;50.948;10.696;2023-08-21T17:10:54;28.00;99.90
30572;DHT22;17348;50.948;10.696;2023-08-21T17:13:56;27.90;99.90
30572;DHT22;17348;50.948;10.696;2023-08-21T17:16:58;27.80;99.90
30572;DHT22;17348;50.948;10.696;2023-08-21T17:20:01;27.70;99.90
30572;DHT22;17348;50.948;10.696;2023-08-21T17:23:05;27.60;99.90
30572;DHT22;17348;50.948;10.696;2023-08-21T17:26:08;27.50;99.90
30572;DHT22;17348;50.948;10.696;2023-08-21T17:29:10;27.40;99.90
30572;DHT22;17348;50.948;10.696;2023-08-21T17:32:14;27.30;99.90
30572;DHT22;17348;50.948;10.696;2023-08-21T17:35:16;27.30;99.90
30572;DHT22;17348;50.948;10.696;2023-08-21T17:38:20;27.30;99.90
30572;DHT22;17348;50.948;10.696;2023-08-21T17:41:22;27.30;99.90
30572;DHT22;17348;50.948;10.696;2023-08-21T17:44:25;27.30;99.90
30572;DHT22;17348;50.948;10.696;2023-08-21T17:47:27;27.20;99.90
30572;DHT22;17348;50.948;10.696;2023-08-21T17:50:29;27.20;99.90
30572;DHT22;17348;50.948;10.696;2023-08-21T17:53:33;27.10;99.90
30572;DHT22;17348;50.948;10.696;2023-08-21T17:56:35;27.00;99.90
30572;DHT22;17348;50.948;10.696;2023-08-21T17:59:38;26.90;99.90
30572;DHT22;17348;50.948;10.696;2023-08-21T18:02:40;26.90;99.90
30572;DHT22;17348;50.948;10.696;2023-08-21T18:05:42;26.80;99.90
30572;DHT22;17348;50.948;10.696;2023-08-21T18:08:46;26.70;99.90
30572;DHT22;17348;50.948;10.696;2023-08-21T18:11:48;26.60;99.90
30572;DHT22;17348;50.948;10.696;2023-08-21T18:14:51;26.50;99.90
30572;DHT22;17348;50.948;10.696;2023-08-21T18:17:53;26.40;99.90
30572;DHT22;17348;50.948;10.696;2023-08-21T18:20:56;26.40;99.90
30572;DHT22;17348;50.948;10.696;2023-08-21T18:23:59;26.30;99.90
30572;DHT22;17348;50.948;10.696;2023-08-21T18:27:02;26.20;99.90
30572;DHT22;17348;50.948;10.696;2023-08-21T18:30:05;26.10;99.90
30572;DHT22;17348;50.948;10.696;2023-08-21T18:33:08;26.10;99.90
30572;DHT22;17348;50.948;10.696;2023-08-21T18:36:10;26.00;99.90
30572;DHT22;17348;50.948;10.696;2023-08-21T18:39:15;26.00;99.90
30572;DHT22;17348;50.948;10.696;2023-08-21T18:42:19;25.90;99.90
30572;DHT22;17348;50.948;10.696;2023-08-21T18:45:22;25.80;99.90
30572;DHT22;17348;50.948;10.696;2023-08-21T18:48:24;25.70;99.90
30572;DHT22;17348;50.948;10.696;2023-08-21T18:51:26;25.60;99.90
30572;DHT22;17348;50.948;10.696;2023-08-21T18:54:30;25.50;99.90
30572;DHT22;17348;50.948;10.696;2023-08-21T18:57:32;25.40;99.90
30572;DHT22;17348;50.948;10.696;2023-08-21T19:00:35;25.30;99.90